Time;durP1;ratioP1;P1;durP2;ratioP2;P2;SDS_P1;SDS_P2;PMS_P1;PMS_P2;Temp;Humidity;BMP_temperature;BMP_pressure;BME280_temperature;BME280_humidity;BME280_pressure;Samples;Min_cycle;Max_cycle;Signal;HPM_P1;HPM_P2
2023/03/07 00:01:04;;;;;;;41.25;13.80;;;;;;;4.51;71.52;98793.19;4991972;28;20050;-85
2023/03/07 00:03:31;;;;;;;40.47;15.25;;;;;;;4.55;71.35;98794.59;5011758;28;20051;-86
2023/03/07 00:06:02;;;;;;;37.17;15.90;;;;;;;4.53;70.74;98792.13;4985741;28;20389;-85
2023/03/07 00:08:29;;;;;;;35.97;14.27;;;;;;;4.56;71.03;98799.75;5036517;28;20072;-86
2023/03/07 00:11:02;;;;;;;40.20;14.75;;;;;;;4.55;71.02;98799.88;5024023;28;20061;-86
2023/03/07 00:13:30;;;;;;;;;;;;;;;4.45;70.15;98796.31;5036062;28;20124;-85
2023/03/07 00:16:02;;;;;;;42.40;14.57;;;;;;;4.50;70.73;98799.41;5037739;28;19936;-86
2023/03/07 00:18:29;;;;;;;40.95;14.90;;;;;;;4.51;71.30;98790.56;5005853;28;20071;-86
2023/03/07 00:21:01;;;;;;;40.90;14.63;;;;;;;4.50;70.68;98795.00;5023383;28;20424;-85
2023/03/07 00:23:35;;;;;;;41.83;15.02;;;;;;;4.51;70.73;98787.94;5009627;28;20439;-86
2023/03/07 00:26:07;;;;;;;38.63;15.15;;;;;;;4.49;70.96;98788.06;5035113;28;20444;-85
2023/03/07 00:28:34;;;;;;;44.30;14.57;;;;;;;4.48;71.72;98796.91;5025357;28;20576;-85
2023/03/07 00:31:04;;;;;;;39.88;15.30;;;;;;;4.49;71.07;98787.22;5012162;28;20558;-86
2023/03/07 00:33:30;;;;;;;33.65;13.02;;;;;;;4.44;71.26;98787.59;5023792;28;20053;-85
2023/03/07 00:35:59;;;;;;;36.05;15.02;;;;;;;4.45;71.27;98781.38;5051016;28;20053;-86
2023/03/07 00:38:28;;;;;;;37.20;14.75;;;;;;;4.47;71.33;98786.50;5034328;28;20404;-85
2023/03/07 00:41:06;;;;;;;39.90;14.13;;;;;;;4.42;70.85;98786.88;5007888;28;20045;-85
2023/03/07 00:43:34;;;;;;;41.10;15.27;;;;;;;4.49;71.27;98779.34;5006206;28;20410;-86
2023/03/07 00:46:01;;;;;;;39.55;14.30;;;;;;;4.53;71.04;98784.22;5006894;28;20057;-86
2023/03/07 00:48:29;;;;;;;36.10;14.70;;;;;;;4.52;70.95;98782.53;4992250;28;20095;-86
2023/03/07 00:50:56;;;;;;;37.15;13.60;;;;;;;4.55;71.35;98776.19;5021787;28;20046;-86
2023/03/07 00:53:24;;;;;;;38.78;13.35;;;;;;;4.55;70.56;98770.94;5008520;28;20041;-86
2023/03/07 00:55:55;;;;;;;38.30;13.20;;;;;;;4.48;70.39;98768.00;5005464;28;20506;-86
2023/03/07 00:58:23;;;;;;;35.38;14.82;;;;;;;4.56;70.63;98772.63;5015613;28;20049;-87
2023/03/07 01:00:50;;;;;;;33.15;13.48;;;;;;;4.53;70.52;98757.13;5018213;28;20140;-86
2023/03/07 01:03:18;;;;;;;29.90;11.85;;;;;;;4.57;70.43;98769.03;5017598;28;20124;-86
2023/03/07 01:05:46;;;;;;;32.65;12.68;;;;;;;4.56;70.37;98768.22;4988415;28;20392;-85
2023/03/07 01:08:13;;;;;;;39.08;13.65;;;;;;;4.55;70.47;98769.19;5024853;28;20049;-85
2023/03/07 01:10:40;;;;;;;32.75;12.88;;;;;;;4.50;70.36;98755.56;5005589;28;20040;-86
2023/03/07 01:13:08;;;;;;;33.88;12.65;;;;;;;4.52;70.35;98751.00;4993528;28;20382;-86
2023/03/07 01:15:36;;;;;;;31.80;12.43;;;;;;;4.52;70.22;98756.25;5007190;28;20465;-87
2023/03/07 01:18:04;;;;;;;37.38;13.07;;;;;;;4.45;70.40;98751.63;5018253;28;20073;-85
2023/03/07 01:20:32;;;;;;;34.72;12.88;;;;;;;4.46;70.45;98758.56;5017117;28;20489;-86
2023/03/07 01:22:59;;;;;;;35.28;12.00;;;;;;;4.41;70.68;98753.66;5019638;28;20049;-86
2023/03/07 01:25:26;;;;;;;34.60;12.75;;;;;;;4.40;71.19;98745.91;5027978;28;20057;-85
2023/03/07 01:27:54;;;;;;;36.65;13.10;;;;;;;4.39;71.72;98755.59;5035677;28;20053;-85
2023/03/07 01:30:24;;;;;;;35.22;13.48;;;;;;;4.34;72.41;98750.69;5016899;28;20095;-85
2023/03/07 01:32:55;;;;;;;40.45;14.85;;;;;;;4.31;73.21;98747.47;5015493;28;20041;-86
2023/03/07 01:35:23;;;;;;;39.90;13.82;;;;;;;4.32;73.44;98754.41;5016414;28;20049;-86
2023/03/07 01:37:51;;;;;;;46.67;15.88;;;;;;;4.29;74.02;98752.03;5005301;28;20603;-85
2023/03/07 01:40:20;;;;;;;43.03;14.07;;;;;;;4.24;74.68;98755.00;5023980;28;20045;-85
2023/03/07 01:42:47;;;;;;;41.53;13.82;;;;;;;4.17;75.60;98748.56;5018093;28;20053;-86
2023/03/07 01:45:14;;;;;;;36.40;13.73;;;;;;;4.14;76.29;98746.19;5023843;28;20049;-85
2023/03/07 01:47:46;;;;;;;38.95;15.13;;;;;;;4.10;77.44;98742.16;5032714;28;20041;-86
2023/03/07 01:50:16;;;;;;;35.30;14.77;;;;;;;4.09;77.35;98738.66;5020541;28;20120;-86
2023/03/07 01:52:56;;;;;;;43.92;15.27;;;;;;;4.02;78.70;98740.13;5019643;28;20049;-86
2023/03/07 01:55:27;;;;;;;40.92;14.38;;;;;;;4.01;79.08;98740.25;4973521;28;20049;-86
2023/03/07 01:58:03;;;;;;;45.75;16.88;;;;;;;3.94;80.28;98734.63;5003454;28;20087;-86
2023/03/07 02:00:30;;;;;;;39.58;15.07;;;;;;;3.92;79.54;98726.06;5006847;28;20080;-86
2023/03/07 02:03:08;;;;;;;38.67;15.27;;;;;;;3.91;81.09;98714.69;5006555;28;20135;-87
2023/03/07 02:05:46;;;;;;;43.67;16.35;;;;;;;3.88;81.97;98711.47;5004789;28;20049;-86
2023/03/07 02:08:14;;;;;;;46.30;16.20;;;;;;;3.82;82.54;98704.94;5004449;28;20087;-87
2023/03/07 02:10:42;;;;;;;45.17;17.83;;;;;;;3.84;83.00;98704.78;5016255;28;20488;-87
2023/03/07 02:13:09;;;;;;;43.03;17.05;;;;;;;3.81;83.06;98695.38;4985484;28;20049;-87
2023/03/07 02:15:37;;;;;;;50.08;18.25;;;;;;;3.79;83.16;98694.69;5021175;28;20057;-86
2023/03/07 02:18:04;;;;;;;47.30;17.10;;;;;;;3.73;84.27;98691.69;5029808;28;20053;-86
2023/03/07 02:20:40;;;;;;;43.42;16.40;;;;;;;3.75;84.56;98693.22;5017758;28;20556;-86
2023/03/07 02:23:16;;;;;;;46.00;17.95;;;;;;;3.74;83.86;98685.47;5017527;28;20077;-86
2023/03/07 02:25:51;;;;;;;50.13;17.67;;;;;;;3.74;84.99;98690.72;5006420;28;20438;-86
2023/03/07 02:28:18;;;;;;;46.60;17.40;;;;;;;3.76;84.12;98684.38;5023268;28;20683;-86
2023/03/07 02:30:56;;;;;;;41.85;15.93;;;;;;;3.76;84.43;98684.38;5018871;28;20041;-86
2023/03/07 02:33:24;;;;;;;44.97;17.23;;;;;;;3.78;83.73;98684.28;4998629;28;20435;-86
2023/03/07 02:35:59;;;;;;;;;;;;;;;3.61;86.15;98683.81;4988071;28;20056;-86
2023/03/07 02:38:26;;;;;;;43.15;15.60;;;;;;;3.73;84.43;98686.44;5031737;28;20475;-86
2023/03/07 02:40:54;;;;;;;43.85;16.15;;;;;;;3.71;84.77;98681.28;5019279;28;20059;-86
2023/03/07 02:43:21;;;;;;;41.15;16.08;;;;;;;3.74;84.51;98685.47;5000334;28;20049;-87
2023/03/07 02:45:48;;;;;;;44.00;16.67;;;;;;;3.78;84.06;98686.91;5017659;28;20396;-87
2023/03/07 02:48:15;;;;;;;44.95;16.60;;;;;;;3.81;83.87;98681.41;5018152;28;20048;-87
2023/03/07 02:50:42;;;;;;;45.30;16.45;;;;;;;3.80;83.95;98680.56;5014538;28;20041;-87
2023/03/07 02:53:09;;;;;;;48.13;17.63;;;;;;;3.78;83.81;98685.09;5001503;28;20053;-86
2023/03/07 02:55:36;;;;;;;50.20;16.42;;;;;;;3.77;84.01;98675.56;5006644;28;20049;-86
2023/03/07 02:58:04;;;;;;;47.10;16.60;;;;;;;3.73;84.71;98675.94;5034031;28;20114;-87
2023/03/07 03:00:31;;;;;;;49.50;17.42;;;;;;;3.76;84.57;98666.00;5033700;28;20098;-87
2023/03/07 03:02:58;;;;;;;47.88;17.45;;;;;;;3.77;84.22;98670.31;4991011;28;20061;-88
2023/03/07 03:05:25;;;;;;;49.72;15.48;;;;;;;3.78;84.27;98666.72;5030978;28;20638;-88
2023/03/07 03:07:53;;;;;;;43.28;16.20;;;;;;;3.78;84.30;98669.34;5016704;28;20548;-86
2023/03/07 03:10:20;;;;;;;50.00;17.05;;;;;;;3.79;84.22;98664.94;4987932;28;20103;-86
2023/03/07 03:12:46;;;;;;;40.25;16.27;;;;;;;3.81;84.05;98661.22;4988315;28;20518;-86
2023/03/07 03:15:14;;;;;;;47.17;17.65;;;;;;;3.82;84.01;98672.59;5026244;28;20099;-87
2023/03/07 03:17:41;;;;;;;39.97;15.65;;;;;;;3.81;83.96;98661.22;5012431;28;20061;-86
2023/03/07 03:20:10;;;;;;;41.80;15.70;;;;;;;3.81;84.39;98665.66;5003872;28;20540;-87
2023/03/07 03:22:38;;;;;;;41.08;16.42;;;;;;;3.82;84.53;98664.72;5031140;28;20095;-87
2023/03/07 03:25:08;;;;;;;43.90;15.38;;;;;;;3.77;84.73;98669.50;5031044;28;20053;-87
2023/03/07 03:27:38;;;;;;;44.67;17.58;;;;;;;3.85;83.56;98665.28;5006321;28;20851;-87
2023/03/07 03:30:07;;;;;;;46.45;15.45;;;;;;;3.85;83.63;98656.59;5021286;28;20045;-87
2023/03/07 03:32:38;;;;;;;44.80;16.02;;;;;;;3.79;83.83;98657.91;5023723;28;20069;-87
2023/03/07 03:35:06;;;;;;;46.75;16.23;;;;;;;3.81;84.27;98668.28;5001087;28;20045;-87
2023/03/07 03:37:33;;;;;;;45.58;16.90;;;;;;;3.83;84.14;98661.94;5002832;28;20068;-86
2023/03/07 03:40:05;;;;;;;48.85;17.83;;;;;;;3.85;83.54;98662.66;5030035;28;20044;-86
2023/03/07 03:42:32;;;;;;;50.30;16.88;;;;;;;3.87;83.55;98665.19;4988462;28;20107;-86
2023/03/07 03:45:01;;;;;;;42.55;16.60;;;;;;;3.87;83.14;98666.00;5000898;28;20050;-87
2023/03/07 03:47:27;;;;;;;49.05;16.67;;;;;;;3.87;83.36;98662.56;5027207;28;20050;-87
2023/03/07 03:49:54;;;;;;;46.97;15.82;;;;;;;3.91;83.02;98650.84;5029951;28;20063;-87
2023/03/07 03:52:22;;;;;;;44.35;16.70;;;;;;;3.94;82.98;98649.75;5011448;28;20107;-87
2023/03/07 03:54:49;;;;;;;45.20;16.42;;;;;;;3.95;83.25;98651.44;5031333;28;20141;-87
2023/03/07 03:57:19;;;;;;;43.60;16.25;;;;;;;3.89;83.55;98644.88;5003045;28;20134;-87
2023/03/07 03:59:46;;;;;;;42.00;15.45;;;;;;;3.88;84.01;98641.41;5014178;28;20045;-87
2023/03/07 04:02:15;;;;;;;40.65;16.02;;;;;;;3.91;83.17;98641.16;5020916;28;20053;-87
2023/03/07 04:04:42;;;;;;;46.88;17.52;;;;;;;3.90;83.57;98644.75;5015693;28;20128;-87
2023/03/07 04:07:08;;;;;;;40.90;15.75;;;;;;;3.97;82.37;98642.47;5029536;28;20052;-87
2023/03/07 04:09:35;;;;;;;40.10;15.60;;;;;;;3.96;82.79;98632.91;5025730;28;20068;-86
2023/03/07 04:12:02;;;;;;;46.08;16.20;;;;;;;3.94;83.33;98636.63;5003413;28;20038;-86
2023/03/07 04:14:29;;;;;;;45.90;17.27;;;;;;;3.95;82.83;98635.69;5033289;28;20073;-86
2023/03/07 04:16:56;;;;;;;44.63;16.55;;;;;;;3.96;83.31;98634.72;5007653;28;20079;-86
2023/03/07 04:19:23;;;;;;;47.85;17.42;;;;;;;4.01;82.74;98629.91;4987985;28;20679;-86
2023/03/07 04:21:50;;;;;;;52.03;17.88;;;;;;;3.91;83.51;98633.28;4990389;28;20045;-86
2023/03/07 04:24:17;;;;;;;48.35;16.40;;;;;;;3.89;84.30;98626.47;5006242;28;20452;-86
2023/03/07 04:26:43;;;;;;;48.28;17.00;;;;;;;3.87;84.50;98623.16;4992078;28;20598;-86
2023/03/07 04:29:10;;;;;;;44.15;16.48;;;;;;;3.88;84.40;98617.78;5003012;28;20892;-85
2023/03/07 04:31:40;;;;;;;43.60;15.98;;;;;;;3.89;84.49;98616.84;5010076;28;20053;-86
2023/03/07 04:34:09;;;;;;;45.45;17.42;;;;;;;3.89;84.93;98614.22;5019067;28;20053;-87
2023/03/07 04:36:36;;;;;;;45.97;16.35;;;;;;;3.86;85.13;98609.19;5002049;28;20045;-86
2023/03/07 04:39:03;;;;;;;41.03;16.17;;;;;;;3.87;85.35;98607.41;5002445;28;20108;-86
2023/03/07 04:41:31;;;;;;;39.38;15.07;;;;;;;3.87;85.14;98607.41;5009055;28;20057;-86
2023/03/07 04:44:02;;;;;;;44.35;16.42;;;;;;;3.84;85.32;98598.00;5002992;28;20045;-86
2023/03/07 04:46:29;;;;;;;46.33;17.00;;;;;;;3.83;85.29;98591.03;5018727;28;20045;-86
2023/03/07 04:48:56;;;;;;;43.80;16.73;;;;;;;3.85;84.87;98588.31;5015942;28;20064;-86
2023/03/07 04:51:23;;;;;;;39.85;16.10;;;;;;;3.87;84.59;98586.41;5029049;28;20133;-86
2023/03/07 04:53:50;;;;;;;42.83;17.27;;;;;;;3.89;84.62;98585.31;4991560;28;20147;-86
2023/03/07 04:56:17;;;;;;;44.80;15.90;;;;;;;3.88;84.71;98585.44;5010161;28;20049;-86
2023/03/07 04:58:45;;;;;;;43.42;16.02;;;;;;;3.86;84.83;98579.47;5009759;28;20068;-86
2023/03/07 05:01:13;;;;;;;44.92;16.10;;;;;;;3.86;84.72;98585.53;5033487;28;20069;-86
2023/03/07 05:03:41;;;;;;;42.47;15.43;;;;;;;3.89;84.58;98587.09;5003049;28;20046;-86
2023/03/07 05:06:12;;;;;;;42.70;16.00;;;;;;;3.86;84.15;98584.72;5021216;28;20063;-86
2023/03/07 05:08:39;;;;;;;39.85;14.70;;;;;;;3.88;84.14;98581.00;5019440;28;20073;-86
2023/03/07 05:11:06;;;;;;;38.63;15.55;;;;;;;3.87;84.59;98581.97;5034168;28;20053;-86
2023/03/07 05:13:33;;;;;;;44.92;15.90;;;;;;;3.84;85.27;98576.97;5031762;28;20137;-86
2023/03/07 05:15:59;;;;;;;45.10;16.27;;;;;;;3.84;85.38;98582.22;5024204;28;20708;-86
2023/03/07 05:18:27;;;;;;;46.97;15.75;;;;;;;3.85;85.00;98572.56;5003443;28;20411;-86
2023/03/07 05:20:56;;;;;;;45.67;15.85;;;;;;;3.89;84.58;98579.22;5018489;28;20460;-86
2023/03/07 05:23:24;;;;;;;40.50;15.82;;;;;;;3.87;84.70;98573.28;5006093;28;20129;-86
2023/03/07 05:25:52;;;;;;;40.35;14.60;;;;;;;3.88;84.40;98567.88;5007850;28;20133;-83
2023/03/07 05:28:19;;;;;;;47.45;15.18;;;;;;;3.89;84.74;98573.97;4999348;28;20507;-83
2023/03/07 05:30:46;;;;;;;42.17;13.73;;;;;;;3.87;85.11;98576.72;5023827;28;20057;-82
2023/03/07 05:33:13;;;;;;;37.05;14.02;;;;;;;3.83;85.82;98569.22;5021448;28;20046;-82
2023/03/07 05:35:41;;;;;;;44.30;14.80;;;;;;;3.80;86.51;98572.91;5019452;28;20045;-82
2023/03/07 05:38:09;;;;;;;38.78;15.43;;;;;;;3.84;86.03;98568.25;5020379;28;20045;-83
2023/03/07 05:40:36;;;;;;;48.17;15.48;;;;;;;3.82;86.42;98567.56;5020907;28;20120;-83
2023/03/07 05:43:04;;;;;;;39.25;16.00;;;;;;;3.84;86.35;98570.88;5036234;28;20048;-83
2023/03/07 05:45:31;;;;;;;46.45;17.73;;;;;;;3.89;85.88;98576.59;5008309;28;20124;-82
2023/03/07 05:47:59;;;;;;;43.20;16.52;;;;;;;3.86;86.19;98571.59;5010495;28;20046;-83
2023/03/07 05:50:26;;;;;;;45.33;15.55;;;;;;;3.91;84.96;98564.16;5020389;28;20107;-82
2023/03/07 05:52:53;;;;;;;40.33;16.13;;;;;;;3.92;84.74;98571.09;5025472;28;20045;-83
2023/03/07 05:55:23;;;;;;;45.35;17.20;;;;;;;3.88;85.57;98559.16;5017140;28;20048;-83
2023/03/07 05:57:50;;;;;;;41.50;16.98;;;;;;;3.87;85.53;98555.72;5018524;28;20407;-83
2023/03/07 06:00:18;;;;;;;42.05;15.45;;;;;;;3.88;86.19;98567.03;5019149;28;20052;-82
2023/03/07 06:02:52;;;;;;;47.70;16.30;;;;;;;3.86;86.45;98558.47;5048465;28;20051;-83
2023/03/07 06:05:19;;;;;;;43.42;15.55;;;;;;;3.88;85.79;98562.63;5001924;28;20140;-83
2023/03/07 06:07:46;;;;;;;50.03;15.90;;;;;;;3.88;85.41;98554.75;5024552;28;20991;-82
2023/03/07 06:10:14;;;;;;;40.13;14.98;;;;;;;3.90;85.16;98555.47;5021283;28;20068;-83
2023/03/07 06:12:40;;;;;;;37.63;13.38;;;;;;;3.89;85.85;98552.94;5031870;28;20068;-82
2023/03/07 06:15:08;;;;;;;37.90;13.57;;;;;;;3.88;86.31;98552.13;5016271;28;20059;-84
2023/03/07 06:17:35;;;;;;;41.03;15.40;;;;;;;3.79;87.16;98546.78;4986658;28;20131;-83
2023/03/07 06:20:03;;;;;;;42.35;14.23;;;;;;;3.83;86.85;98543.78;4990725;28;20042;-83
2023/03/07 06:22:30;;;;;;;40.80;15.05;;;;;;;3.87;86.68;98549.63;5004751;28;20068;-81
2023/03/07 06:24:58;;;;;;;38.92;13.88;;;;;;;3.84;87.14;98552.50;5025221;28;20056;-82
2023/03/07 06:27:25;;;;;;;40.33;14.45;;;;;;;3.93;85.68;98543.88;5018592;28;20472;-82
2023/03/07 06:29:51;;;;;;;41.47;15.25;;;;;;;3.91;85.88;98543.16;5032393;28;20041;-81
2023/03/07 06:32:18;;;;;;;48.75;15.77;;;;;;;3.90;85.65;98542.34;5018165;28;20045;-81
2023/03/07 06:34:45;;;;;;;42.92;16.05;;;;;;;3.84;86.25;98544.63;5024519;28;20088;-82
2023/03/07 06:37:12;;;;;;;49.08;17.30;;;;;;;3.86;85.94;98548.78;5019090;28;20440;-81
2023/03/07 06:39:39;;;;;;;41.85;15.23;;;;;;;3.86;86.26;98533.03;5031157;28;20382;-80
2023/03/07 06:42:06;;;;;;;49.88;20.58;;;;;;;3.87;86.73;98545.22;5039361;28;20049;-82
2023/03/07 06:44:33;;;;;;;39.60;15.30;;;;;;;3.88;86.30;98549.50;5030083;28;20042;-82
2023/03/07 06:47:00;;;;;;;45.60;15.45;;;;;;;3.83;87.26;98540.34;5018671;28;20041;-82
2023/03/07 06:49:27;;;;;;;41.20;16.40;;;;;;;3.85;87.18;98543.66;5022922;28;20650;-81
2023/03/07 06:51:53;;;;;;;38.13;14.93;;;;;;;3.89;86.12;98551.19;5034426;28;20102;-82
2023/03/07 06:54:20;;;;;;;44.40;15.32;;;;;;;3.88;87.17;98551.28;5013489;28;20041;-81
2023/03/07 06:56:47;;;;;;;41.05;15.63;;;;;;;3.88;86.79;98549.50;5011923;28;20568;-83
2023/03/07 06:59:18;;;;;;;42.00;15.40;;;;;;;3.92;87.23;98542.22;5014384;28;20472;-81
2023/03/07 07:01:47;;;;;;;43.72;16.58;;;;;;;3.91;87.92;98546.63;5015747;28;20052;-83
2023/03/07 07:04:14;;;;;;;39.28;16.35;;;;;;;3.98;87.24;98540.88;5017583;28;20057;-82
2023/03/07 07:06:41;;;;;;;47.03;16.10;;;;;;;3.97;87.99;98547.06;5019617;28;20171;-82
2023/03/07 07:09:11;;;;;;;38.10;13.93;;;;;;;3.97;87.79;98540.03;5041524;28;20094;-82
2023/03/07 07:11:38;;;;;;;47.13;15.68;;;;;;;4.00;88.20;98546.84;4998278;28;20480;-82
2023/03/07 07:14:09;;;;;;;48.47;15.40;;;;;;;4.00;87.33;98547.66;5001134;28;21661;-81
2023/03/07 07:16:37;;;;;;;38.13;14.57;;;;;;;4.01;87.48;98544.06;5033824;28;20064;-82
2023/03/07 07:19:04;;;;;;;46.08;14.20;;;;;;;4.06;87.41;98548.94;5018299;28;20049;-81
2023/03/07 07:21:33;;;;;;;42.00;14.98;;;;;;;4.09;87.54;98548.69;5013725;28;20044;-82
2023/03/07 07:24:00;;;;;;;42.88;15.57;;;;;;;4.12;87.50;98543.19;5003480;28;20045;-82
2023/03/07 07:26:27;;;;;;;38.20;14.25;;;;;;;4.16;87.34;98539.34;4986857;28;20049;-83
2023/03/07 07:28:56;;;;;;;38.08;12.25;;;;;;;4.25;86.59;98541.22;4986604;28;20487;-82
2023/03/07 07:31:22;;;;;;;39.42;14.93;;;;;;;4.30;85.50;98546.06;5017958;28;20443;-81
2023/03/07 07:33:50;;;;;;;32.30;13.88;;;;;;;4.34;85.14;98544.88;5024321;28;20527;-83
2023/03/07 07:36:17;;;;;;;33.38;12.93;;;;;;;4.40;84.79;98541.75;5001103;28;20064;-81
2023/03/07 07:38:44;;;;;;;36.08;13.27;;;;;;;4.44;83.74;98537.06;4994077;28;20047;-82
2023/03/07 07:41:11;;;;;;;34.97;12.60;;;;;;;4.46;83.91;98535.97;5033172;28;20098;-82
2023/03/07 07:43:38;;;;;;;38.38;12.30;;;;;;;4.50;83.45;98539.16;5005435;28;20057;-82
2023/03/07 07:46:11;;;;;;;37.25;14.20;;;;;;;4.52;83.10;98537.25;4991120;28;20098;-83
2023/03/07 07:48:38;;;;;;;35.83;12.15;;;;;;;4.59;82.47;98535.75;5008465;28;20514;-82
2023/03/07 07:51:05;;;;;;;34.05;12.75;;;;;;;4.62;81.95;98537.31;5029999;28;20042;-82
2023/03/07 07:53:34;;;;;;;31.65;11.25;;;;;;;4.67;81.57;98540.38;5042168;28;24168;-84
2023/03/07 07:56:02;;;;;;;33.83;12.20;;;;;;;4.69;81.35;98536.66;4993175;28;20053;-83
2023/03/07 07:58:28;;;;;;;35.13;12.05;;;;;;;4.72;81.15;98535.56;5021156;28;20063;-84
2023/03/07 08:00:55;;;;;;;30.95;11.80;;;;;;;4.74;80.73;98533.63;5020477;28;20038;-84
2023/03/07 08:03:22;;;;;;;35.17;12.27;;;;;;;4.77;80.73;98534.19;5024318;28;20037;-83
2023/03/07 08:05:49;;;;;;;34.10;12.52;;;;;;;4.80;80.09;98535.72;5022942;28;20073;-82
2023/03/07 08:08:18;;;;;;;35.78;12.15;;;;;;;4.83;79.93;98529.38;5037542;28;20068;-82
2023/03/07 08:10:45;;;;;;;30.67;10.35;;;;;;;4.83;79.53;98532.00;5040057;28;20499;-83
2023/03/07 08:13:14;;;;;;;31.45;11.57;;;;;;;4.85;79.38;98530.09;5029141;28;20044;-83
2023/03/07 08:15:41;;;;;;;35.17;11.55;;;;;;;4.86;79.02;98524.69;5026126;28;20049;-82
2023/03/07 08:18:11;;;;;;;40.60;12.02;;;;;;;4.87;78.32;98522.91;5042939;28;20483;-83
2023/03/07 08:20:40;;;;;;;37.63;12.18;;;;;;;4.85;78.39;98515.13;5022571;28;20055;-83
2023/03/07 08:23:06;;;;;;;28.75;11.27;;;;;;;4.88;78.22;98520.13;5010422;28;20044;-83
2023/03/07 08:25:33;;;;;;;36.50;11.00;;;;;;;4.90;78.20;98522.63;5013628;28;20057;-83
2023/03/07 08:28:02;;;;;;;34.63;11.48;;;;;;;4.90;78.07;98525.25;5036286;28;20043;-83
2023/03/07 08:30:31;;;;;;;37.22;12.52;;;;;;;4.90;77.47;98520.00;5020639;28;20037;-85
2023/03/07 08:32:58;;;;;;;32.20;11.05;;;;;;;4.92;77.52;98513.63;5036782;28;20413;-82
2023/03/07 08:35:26;;;;;;;27.33;10.68;;;;;;;4.93;77.39;98523.19;5025189;28;20056;-83
2023/03/07 08:37:54;;;;;;;27.98;10.73;;;;;;;4.94;77.29;98510.88;5008655;28;20082;-83
2023/03/07 08:40:22;;;;;;;26.95;9.82;;;;;;;4.95;77.21;98523.06;5009818;28;20053;-84
2023/03/07 08:42:49;;;;;;;29.98;11.40;;;;;;;4.94;76.90;98510.88;5023183;28;20042;-83
2023/03/07 08:45:16;;;;;;;28.88;10.25;;;;;;;4.97;76.63;98515.88;5008769;28;20558;-84
2023/03/07 08:47:43;;;;;;;25.17;9.82;;;;;;;4.99;76.35;98509.53;5035735;28;20039;-84
2023/03/07 08:50:10;;;;;;;30.90;10.32;;;;;;;5.01;76.31;98509.38;5022627;28;20095;-83
2023/03/07 08:52:37;;;;;;;23.38;9.77;;;;;;;5.04;76.16;98508.28;5021503;28;20045;-82
2023/03/07 08:55:04;;;;;;;24.92;9.82;;;;;;;5.04;76.13;98506.50;5031730;28;20061;-82
2023/03/07 08:57:32;;;;;;;25.92;9.63;;;;;;;5.07;76.03;98508.03;5009085;28;20053;-82
2023/03/07 08:59:58;;;;;;;25.42;9.32;;;;;;;5.08;75.87;98507.88;5035593;28;20046;-82
2023/03/07 09:02:25;;;;;;;27.13;10.23;;;;;;;5.11;75.58;98501.50;5039010;28;20042;-85
2023/03/07 09:04:52;;;;;;;27.60;8.90;;;;;;;5.12;75.25;98497.94;5008705;28;20044;-82
2023/03/07 09:07:19;;;;;;;31.08;9.98;;;;;;;5.09;74.66;98485.88;5016368;28;20033;-80
2023/03/07 09:09:45;;;;;;;24.05;8.85;;;;;;;5.11;74.20;98486.56;5043291;28;20042;-81
2023/03/07 09:12:12;;;;;;;25.92;9.43;;;;;;;5.12;73.78;98488.22;5024220;28;20120;-80
2023/03/07 09:14:40;;;;;;;24.40;9.82;;;;;;;5.14;73.58;98493.34;5036016;28;20053;-80
2023/03/07 09:17:07;;;;;;;24.00;9.52;;;;;;;5.13;73.48;98476.72;5021523;28;20040;-80
2023/03/07 09:19:34;;;;;;;24.88;9.10;;;;;;;5.14;73.19;98486.31;5033319;28;20041;-82
2023/03/07 09:22:01;;;;;;;23.27;8.45;;;;;;;5.18;73.22;98484.22;5032026;28;20063;-82
2023/03/07 09:24:28;;;;;;;23.55;8.07;;;;;;;5.22;73.39;98488.25;5030403;28;20045;-81
2023/03/07 09:26:55;;;;;;;21.75;8.48;;;;;;;5.26;73.28;98483.56;5011667;28;20049;-81
2023/03/07 09:29:22;;;;;;;23.40;9.00;;;;;;;5.28;73.12;98476.34;5017808;28;20042;-81
2023/03/07 09:31:49;;;;;;;27.67;9.43;;;;;;;5.27;72.79;98478.16;5020001;28;20368;-80
2023/03/07 09:34:16;;;;;;;17.27;7.75;;;;;;;5.31;72.76;98479.53;5035741;28;20049;-81
2023/03/07 09:36:43;;;;;;;24.05;8.90;;;;;;;5.32;72.34;98475.13;5024780;28;20045;-81
2023/03/07 09:39:13;;;;;;;24.13;8.75;;;;;;;5.32;71.68;98475.97;5027669;28;20045;-80
2023/03/07 09:41:51;;;;;;;18.50;7.53;;;;;;;5.31;70.38;98473.44;5019494;28;20076;-80
2023/03/07 09:44:32;;;;;;;23.42;7.60;;;;;;;5.31;69.83;98469.00;5033579;28;20056;-82
2023/03/07 09:47:46;;;;;;;18.23;7.68;;;;;;;5.34;69.84;98467.91;4962957;28;20116;-82
2023/03/07 09:50:52;;;;;;;21.20;8.07;;;;;;;5.34;68.95;98474.03;5005101;28;20504;-80
2023/03/07 09:53:26;;;;;;;22.40;7.95;;;;;;;5.40;70.20;98462.94;4924756;28;20057;-81
2023/03/07 09:55:53;;;;;;;20.55;7.88;;;;;;;5.52;72.37;98455.75;4972642;28;20084;-82
2023/03/07 09:58:22;;;;;;;21.08;9.70;;;;;;;5.54;70.36;98455.59;5018477;28;20057;-81
2023/03/07 10:00:55;;;;;;;19.77;7.38;;;;;;;5.54;70.01;98459.06;5018167;28;20037;-81
2023/03/07 10:03:36;;;;;;;20.52;7.55;;;;;;;5.52;67.70;98457.53;5018525;28;20511;-80
2023/03/07 10:06:32;;;;;;;16.45;7.35;;;;;;;5.48;67.32;98450.91;5033713;28;20048;-81
2023/03/07 10:08:59;;;;;;;20.98;7.22;;;;;;;5.56;69.41;98451.88;5014303;28;20642;-80
2023/03/07 10:11:42;;;;;;;23.73;8.10;;;;;;;5.52;67.89;98455.75;5015023;28;20517;-80
2023/03/07 10:14:17;;;;;;;23.58;8.32;;;;;;;5.50;67.12;98459.50;4960622;28;20056;-81
2023/03/07 10:17:06;;;;;;;25.25;8.85;;;;;;;5.50;66.85;98447.16;5037503;28;20049;-82
2023/03/07 10:19:52;;;;;;;19.00;7.50;;;;;;;5.52;67.24;98455.75;5014148;28;20216;-81
2023/03/07 10:22:53;;;;;;;21.45;7.90;;;;;;;5.50;66.51;98441.91;5003992;28;20045;-81
2023/03/07 10:25:44;;;;;;;24.10;7.80;;;;;;;5.53;66.71;98443.41;4992643;28;20053;-81
2023/03/07 10:28:14;;;;;;;20.80;7.22;;;;;;;5.53;66.92;98446.88;4980101;28;20052;-80
2023/03/07 10:30:40;;;;;;;25.20;8.07;;;;;;;5.58;67.80;98442.03;5030897;28;20160;-80
2023/03/07 10:33:17;;;;;;;20.63;7.80;;;;;;;5.59;65.99;98437.59;5034752;28;20041;-80
2023/03/07 10:35:50;;;;;;;23.73;8.27;;;;;;;5.59;65.84;98424.41;5036230;28;20048;-80
2023/03/07 10:38:26;;;;;;;22.13;8.35;;;;;;;5.58;65.54;98423.59;5016086;28;20054;-81
2023/03/07 10:40:56;;;;;;;21.27;8.40;;;;;;;5.57;64.85;98423.72;5037484;28;20045;-80
2023/03/07 10:43:26;;;;;;;25.30;8.23;;;;;;;5.66;66.67;98430.81;5024408;28;20041;-80
2023/03/07 10:46:11;;;;;;;20.50;8.73;;;;;;;5.54;63.42;98416.94;5038151;28;20558;-81
2023/03/07 10:48:55;;;;;;;24.40;8.32;;;;;;;5.63;65.75;98425.81;5004834;28;20136;-82
2023/03/07 10:51:43;;;;;;;23.92;10.10;;;;;;;5.59;63.95;98417.34;5000916;28;20394;-82
2023/03/07 10:54:16;;;;;;;25.17;8.50;;;;;;;5.62;64.29;98419.72;5006054;28;20046;-81
2023/03/07 10:57:03;;;;;;;18.90;8.20;;;;;;;5.62;63.69;98419.72;5022444;28;20503;-81
2023/03/07 10:59:30;;;;;;;19.08;8.13;;;;;;;5.74;64.95;98411.66;4979750;28;20045;-81
2023/03/07 11:01:58;;;;;;;23.80;8.32;;;;;;;5.76;65.72;98410.56;5020560;28;20033;-81
2023/03/07 11:04:29;;;;;;;17.85;7.38;;;;;;;5.77;65.03;98403.47;5023061;28;20033;-80
2023/03/07 11:07:00;;;;;;;18.42;7.03;;;;;;;5.80;65.11;98398.78;5016490;28;20411;-81
2023/03/07 11:09:28;;;;;;;22.95;8.82;;;;;;;5.84;64.96;98408.03;4994741;28;20117;-81
2023/03/07 11:12:10;;;;;;;19.38;7.32;;;;;;;5.85;64.30;98400.97;5024471;28;20041;-80
2023/03/07 11:14:50;;;;;;;19.63;7.80;;;;;;;5.85;63.13;98396.56;4989183;28;20045;-81
2023/03/07 11:17:26;;;;;;;23.08;8.13;;;;;;;5.87;63.29;98397.22;4988209;28;20063;-81
2023/03/07 11:19:56;;;;;;;18.45;7.55;;;;;;;5.90;63.45;98390.84;5029854;28;20499;-81
2023/03/07 11:22:23;;;;;;;20.15;7.70;;;;;;;5.95;64.42;98391.28;5006063;28;20060;-81
2023/03/07 11:25:13;;;;;;;20.23;8.02;;;;;;;5.94;63.83;98387.00;5023083;28;20049;-80
2023/03/07 11:27:52;;;;;;;20.65;9.05;;;;;;;5.94;63.16;98373.00;4992278;28;20123;-80
2023/03/07 11:30:43;;;;;;;20.77;8.20;;;;;;;5.90;61.51;98379.47;4989750;28;20120;-80
2023/03/07 11:33:14;;;;;;;22.63;8.40;;;;;;;5.95;63.37;98379.91;4984644;28;20553;-80
2023/03/07 11:35:47;;;;;;;21.33;9.70;;;;;;;5.90;61.04;98377.66;4999304;28;20037;-80
2023/03/07 11:38:35;;;;;;;21.55;8.15;;;;;;;5.90;60.97;98384.75;5004908;28;20060;-81